createdAt,value
2022-07-31T00:01:13.518Z,20.58
2022-07-31T00:03:46.170Z,22.42
2022-07-31T00:06:37.870Z,23.48
2022-07-31T00:09:04.729Z,21.73
2022-07-31T00:11:31.379Z,22.10
2022-07-31T00:13:58.766Z,21.38
2022-07-31T00:16:26.177Z,21.33
2022-07-31T00:18:53.105Z,20.95
2022-07-31T00:21:19.783Z,20.67
2022-07-31T00:23:46.548Z,20.85
2022-07-31T00:26:13.190Z,20.00
2022-07-31T00:28:39.848Z,19.15
2022-07-31T00:31:06.541Z,20.02
2022-07-31T00:33:33.247Z,20.13
2022-07-31T00:35:59.940Z,20.13
2022-07-31T00:38:27.422Z,20.33
2022-07-31T00:40:54.776Z,20.10
2022-07-31T00:43:21.891Z,19.65
2022-07-31T00:45:56.270Z,19.98
2022-07-31T00:48:27.634Z,18.90
2022-07-31T00:50:54.884Z,20.25
2022-07-31T00:53:21.555Z,19.65
2022-07-31T00:55:51.416Z,19.23
2022-07-31T00:58:20.176Z,20.73
2022-07-31T01:00:47.583Z,19.25
2022-07-31T01:03:14.689Z,20.40
2022-07-31T01:05:41.940Z,19.95
2022-07-31T01:08:08.934Z,20.33
2022-07-31T01:10:48.479Z,19.55
2022-07-31T01:13:25.212Z,19.92
2022-07-31T01:15:54.133Z,19.95
2022-07-31T01:18:22.870Z,19.55
2022-07-31T01:20:50.784Z,19.90
2022-07-31T01:23:31.225Z,19.75
2022-07-31T01:27:05.421Z,18.42
2022-07-31T01:29:37.657Z,19.20
2022-07-31T01:32:07.417Z,18.83
2022-07-31T01:34:44.801Z,19.48
2022-07-31T01:37:20.891Z,19.55
2022-07-31T01:39:54.739Z,19.23
2022-07-31T01:42:24.416Z,18.30
2022-07-31T01:44:56.559Z,19.20
2022-07-31T01:47:25.942Z,19.30
2022-07-31T01:49:54.889Z,18.88
2022-07-31T01:52:26.016Z,18.42
2022-07-31T01:54:54.353Z,18.95
2022-07-31T01:57:24.724Z,18.45
2022-07-31T02:00:00.673Z,17.65
2022-07-31T02:02:49.562Z,18.80
2022-07-31T02:05:22.879Z,19.25
2022-07-31T02:07:50.463Z,19.25
2022-07-31T02:10:20.247Z,20.35
2022-07-31T02:12:49.176Z,18.90
2022-07-31T02:15:17.681Z,20.35
2022-07-31T02:17:47.204Z,18.42
2022-07-31T02:20:34.366Z,18.88
2022-07-31T02:23:01.688Z,18.85
2022-07-31T02:25:29.665Z,18.63
2022-07-31T02:28:00.533Z,19.17
2022-07-31T02:30:39.065Z,19.58
2022-07-31T02:35:44.226Z,18.88
2022-07-31T02:38:22.666Z,19.10
2022-07-31T02:41:01.727Z,19.58
2022-07-31T02:43:31.775Z,19.27
2022-07-31T02:46:03.363Z,19.35
2022-07-31T02:48:31.587Z,19.02
2022-07-31T02:51:03.149Z,19.02
2022-07-31T02:53:30.785Z,19.17
2022-07-31T02:56:04.340Z,20.17
2022-07-31T02:58:33.215Z,19.52
2022-07-31T03:01:01.371Z,19.75
2022-07-31T03:03:29.708Z,19.67
2022-07-31T03:05:56.647Z,20.00
2022-07-31T03:08:24.001Z,18.45
2022-07-31T03:10:54.042Z,18.65
2022-07-31T03:13:24.431Z,19.52
2022-07-31T03:15:51.760Z,20.30
2022-07-31T03:18:21.714Z,19.08
2022-07-31T03:20:52.611Z,19.80
2022-07-31T03:23:26.331Z,19.20
2022-07-31T03:26:05.473Z,19.20
2022-07-31T03:28:34.676Z,19.35
2022-07-31T03:31:02.390Z,19.17
2022-07-31T03:33:30.877Z,20.13
2022-07-31T03:35:58.143Z,19.75
2022-07-31T03:38:41.018Z,20.00
2022-07-31T03:41:31.858Z,21.10
2022-07-31T03:43:59.016Z,22.90
2022-07-31T03:46:36.728Z,20.30
2022-07-31T03:49:29.319Z,19.35
2022-07-31T03:51:59.350Z,19.85
2022-07-31T03:54:26.426Z,19.30
2022-07-31T03:57:00.078Z,20.50
2022-07-31T03:59:28.344Z,20.52
2022-07-31T04:02:00.686Z,21.25
2022-07-31T04:04:40.335Z,20.63
2022-07-31T04:07:07.869Z,21.10
2022-07-31T04:09:34.716Z,20.13
2022-07-31T04:12:03.970Z,20.55
2022-07-31T04:14:30.967Z,19.67
2022-07-31T04:16:57.666Z,20.13
2022-07-31T04:19:25.758Z,20.67
2022-07-31T04:21:53.529Z,20.15
2022-07-31T04:24:21.823Z,19.70
2022-07-31T04:26:59.610Z,20.15
2022-07-31T04:29:32.975Z,19.95
2022-07-31T04:31:59.895Z,20.27
2022-07-31T04:34:33.086Z,20.10
2022-07-31T04:37:00.107Z,19.35
2022-07-31T04:39:26.997Z,20.08
2022-07-31T04:41:56.177Z,19.88
2022-07-31T04:44:24.349Z,19.67
2022-07-31T04:47:03.759Z,19.88
2022-07-31T04:49:34.370Z,18.98
2022-07-31T04:52:04.256Z,19.98
2022-07-31T04:54:31.467Z,20.02
2022-07-31T04:56:59.775Z,18.90
2022-07-31T04:59:59.433Z,18.77
2022-07-31T05:02:14.182Z,20.50
2022-07-31T05:04:41.566Z,18.98
2022-07-31T05:07:08.304Z,20.58
2022-07-31T05:09:36.362Z,20.45
2022-07-31T05:12:06.135Z,19.90
2022-07-31T05:14:33.409Z,20.55
2022-07-31T05:17:00.164Z,19.85
2022-07-31T05:19:39.698Z,19.98
2022-07-31T05:22:28.674Z,19.65
2022-07-31T05:25:30.902Z,20.73
2022-07-31T05:27:58.350Z,20.45
2022-07-31T05:30:30.261Z,19.70
2022-07-31T05:32:58.659Z,20.25
2022-07-31T05:35:26.268Z,19.83
2022-07-31T05:37:53.431Z,20.17
2022-07-31T05:40:31.131Z,19.08
2022-07-31T05:43:21.212Z,20.27
2022-07-31T05:46:00.820Z,19.40
2022-07-31T05:48:27.712Z,20.27
2022-07-31T05:50:54.726Z,19.83
2022-07-31T05:53:21.789Z,20.90
2022-07-31T05:56:27.915Z,20.17
2022-07-31T05:58:58.161Z,20.55
2022-07-31T06:01:24.977Z,20.45
2022-07-31T06:03:52.697Z,19.73
2022-07-31T06:06:51.899Z,20.25
2022-07-31T06:09:18.596Z,19.45
2022-07-31T06:11:46.222Z,20.30
2022-07-31T06:14:13.905Z,20.35
2022-07-31T06:17:15.938Z,20.20
2022-07-31T06:19:42.782Z,19.67
2022-07-31T06:22:11.252Z,19.83
2022-07-31T06:24:38.316Z,20.15
2022-07-31T06:27:09.935Z,20.65
2022-07-31T06:29:51.639Z,20.67
2022-07-31T06:32:18.787Z,21.20
2022-07-31T06:34:45.578Z,19.95
2022-07-31T06:37:15.197Z,19.50
2022-07-31T06:39:56.153Z,19.33
2022-07-31T06:42:42.381Z,19.63
2022-07-31T06:45:12.085Z,20.67
2022-07-31T06:47:50.979Z,21.35
2022-07-31T06:50:28.874Z,20.90
2022-07-31T06:53:28.906Z,19.50
2022-07-31T06:55:56.165Z,18.63
2022-07-31T06:58:23.134Z,18.63
2022-07-31T07:00:50.042Z,17.33
2022-07-31T07:03:18.100Z,20.27
2022-07-31T07:05:45.557Z,17.95
2022-07-31T07:08:13.878Z,19.23
2022-07-31T07:10:42.183Z,19.67
2022-07-31T07:13:23.840Z,19.33
2022-07-31T07:16:12.433Z,18.35
2022-07-31T07:18:40.182Z,18.35
2022-07-31T07:21:07.235Z,18.50
2022-07-31T07:23:34.987Z,18.65
2022-07-31T07:26:16.339Z,18.35
2022-07-31T07:28:44.529Z,17.00
2022-07-31T07:31:11.825Z,17.23
2022-07-31T07:33:41.584Z,17.70
2022-07-31T07:36:24.256Z,17.58
2022-07-31T07:39:03.926Z,17.45
2022-07-31T07:41:32.953Z,17.13
2022-07-31T07:44:00.875Z,17.88
2022-07-31T07:46:29.167Z,18.02
2022-07-31T07:48:58.348Z,17.63
2022-07-31T07:51:59.606Z,16.70
2022-07-31T07:54:39.039Z,18.17
2022-07-31T07:57:21.299Z,18.02
2022-07-31T07:59:54.566Z,16.77
2022-07-31T08:02:30.417Z,17.20
2022-07-31T08:04:58.566Z,19.20
2022-07-31T08:07:42.518Z,17.98
2022-07-31T08:10:28.458Z,17.83
2022-07-31T08:13:03.065Z,17.30
2022-07-31T08:15:31.090Z,17.13
2022-07-31T08:18:15.034Z,16.92
2022-07-31T08:20:42.517Z,16.95
2022-07-31T08:23:09.590Z,18.40
2022-07-31T08:25:44.839Z,18.58
2022-07-31T08:28:14.877Z,17.98
2022-07-31T08:30:49.551Z,17.00
2022-07-31T08:33:20.409Z,17.85
2022-07-31T08:35:55.053Z,16.85
2022-07-31T08:38:21.930Z,16.92
2022-07-31T08:41:07.230Z,16.80
2022-07-31T08:44:02.668Z,17.35
2022-07-31T08:46:22.759Z,17.55
2022-07-31T08:48:54.712Z,17.02
2022-07-31T08:51:25.476Z,17.27
2022-07-31T08:54:13.129Z,16.67
2022-07-31T08:56:42.294Z,17.42
2022-07-31T08:59:09.907Z,20.75
2022-07-31T09:01:38.907Z,17.30
2022-07-31T09:04:05.870Z,17.80
2022-07-31T09:06:32.710Z,16.30
2022-07-31T09:08:59.681Z,17.35
2022-07-31T09:11:26.707Z,17.67
2022-07-31T09:14:13.766Z,17.67
2022-07-31T09:16:47.299Z,17.17
2022-07-31T09:22:21.143Z,16.75
2022-07-31T09:24:49.160Z,17.30
2022-07-31T09:27:17.896Z,16.85
2022-07-31T09:29:46.951Z,16.70
2022-07-31T09:32:33.500Z,15.63
2022-07-31T09:35:15.653Z,18.00
2022-07-31T09:37:47.764Z,18.00
2022-07-31T09:40:37.533Z,15.95
2022-07-31T09:43:46.171Z,15.68
2022-07-31T09:46:19.302Z,16.55
2022-07-31T09:49:00.001Z,15.95
2022-07-31T09:51:39.325Z,17.92
2022-07-31T09:54:07.057Z,16.17
2022-07-31T09:56:54.212Z,16.00
2022-07-31T09:59:22.500Z,19.05
2022-07-31T10:01:49.920Z,15.93
2022-07-31T10:04:18.648Z,20.10
2022-07-31T10:06:50.822Z,17.30
2022-07-31T10:09:20.537Z,16.58
2022-07-31T10:12:20.014Z,15.93
2022-07-31T10:14:49.687Z,15.68
2022-07-31T10:17:24.561Z,16.50
2022-07-31T10:20:04.284Z,16.88
2022-07-31T10:23:11.414Z,16.80
2022-07-31T10:25:53.486Z,16.55
2022-07-31T10:28:21.923Z,15.57
2022-07-31T10:30:49.395Z,15.75
2022-07-31T10:33:41.958Z,15.63
2022-07-31T10:36:28.739Z,18.05
2022-07-31T10:39:49.617Z,15.27
2022-07-31T10:42:45.682Z,16.27
2022-07-31T10:45:14.333Z,15.52
2022-07-31T10:47:59.202Z,14.65
2022-07-31T10:51:02.617Z,15.55
2022-07-31T10:56:46.263Z,15.05
2022-07-31T10:59:31.716Z,14.95
2022-07-31T11:02:35.102Z,14.73
2022-07-31T11:05:30.139Z,14.82
2022-07-31T11:08:08.335Z,15.25
2022-07-31T11:11:00.911Z,14.95
2022-07-31T11:14:00.406Z,15.18
2022-07-31T11:16:51.594Z,21.33
2022-07-31T11:19:41.754Z,15.02
2022-07-31T11:22:32.391Z,14.52
2022-07-31T11:25:00.761Z,14.15
2022-07-31T11:27:34.848Z,15.13
2022-07-31T11:30:12.802Z,18.60
2022-07-31T11:32:41.625Z,14.65
2022-07-31T11:35:09.061Z,14.40
2022-07-31T11:37:46.289Z,15.07
2022-07-31T11:40:27.569Z,15.10
2022-07-31T11:43:23.572Z,14.48
2022-07-31T11:45:53.304Z,14.38
2022-07-31T11:48:25.444Z,14.45
2022-07-31T11:50:54.666Z,14.10
2022-07-31T11:53:21.565Z,14.30
2022-07-31T11:55:54.416Z,14.15
2022-07-31T11:58:22.886Z,12.70
2022-07-31T12:01:00.455Z,13.23
2022-07-31T12:03:38.576Z,13.75
2022-07-31T12:06:07.932Z,13.90
2022-07-31T12:08:35.660Z,13.83
2022-07-31T12:11:05.433Z,14.38
2022-07-31T12:13:35.374Z,13.88
2022-07-31T12:16:08.601Z,14.52
2022-07-31T12:18:56.537Z,13.90
2022-07-31T12:21:42.200Z,15.95
2022-07-31T12:24:20.586Z,13.75
2022-07-31T12:26:56.327Z,13.50
2022-07-31T12:29:38.020Z,14.00
2022-07-31T12:32:06.222Z,13.38
2022-07-31T12:34:35.496Z,13.88
2022-07-31T12:37:11.012Z,14.50
2022-07-31T12:39:59.359Z,14.50
2022-07-31T12:42:35.267Z,14.98
2022-07-31T12:45:19.621Z,13.77
2022-07-31T12:47:52.149Z,13.95
2022-07-31T12:50:21.564Z,15.68
2022-07-31T12:52:48.437Z,15.00
2022-07-31T12:55:17.255Z,14.90
2022-07-31T12:57:50.424Z,14.18
2022-07-31T13:00:24.163Z,13.50
2022-07-31T13:02:52.879Z,17.38
2022-07-31T13:05:21.834Z,16.83
2022-07-31T13:07:48.808Z,14.98
2022-07-31T13:10:24.061Z,14.75
2022-07-31T13:12:52.633Z,14.20
2022-07-31T13:15:30.055Z,13.50
2022-07-31T13:18:02.146Z,14.60
2022-07-31T13:20:31.099Z,14.80
2022-07-31T13:22:59.497Z,15.05
2022-07-31T13:25:28.513Z,14.63
2022-07-31T13:27:57.365Z,13.95
2022-07-31T13:30:24.145Z,14.90
2022-07-31T13:32:51.065Z,14.50
2022-07-31T13:35:26.862Z,15.02
2022-07-31T13:37:55.009Z,14.48
2022-07-31T13:40:41.938Z,14.75
2022-07-31T13:43:09.208Z,15.00
2022-07-31T13:45:36.365Z,14.40
2022-07-31T13:48:08.668Z,15.07
2022-07-31T13:50:40.074Z,15.77
2022-07-31T13:53:07.853Z,15.18
2022-07-31T13:55:34.973Z,16.52
2022-07-31T13:58:02.183Z,15.02
2022-07-31T14:00:30.376Z,16.00
2022-07-31T14:02:57.579Z,15.52
2022-07-31T14:05:27.578Z,14.88
2022-07-31T14:07:55.563Z,13.60
2022-07-31T14:10:23.151Z,13.75
2022-07-31T14:12:50.960Z,16.48
2022-07-31T14:15:18.475Z,15.15
2022-07-31T14:17:45.881Z,15.07
2022-07-31T14:20:13.229Z,14.95
2022-07-31T14:22:40.583Z,14.90
2022-07-31T14:25:07.791Z,15.27
2022-07-31T14:27:35.248Z,14.00
2022-07-31T14:30:02.386Z,14.82
2022-07-31T14:32:30.862Z,14.95
2022-07-31T14:34:57.674Z,14.63
2022-07-31T14:37:24.674Z,15.07
2022-07-31T14:39:51.901Z,14.90
2022-07-31T14:42:25.573Z,14.95
2022-07-31T14:44:53.662Z,15.60
2022-07-31T14:47:20.664Z,14.52
2022-07-31T14:50:07.222Z,15.50
2022-07-31T14:52:34.222Z,15.50
2022-07-31T14:55:01.746Z,16.27
2022-07-31T14:57:29.897Z,16.30
2022-07-31T14:59:56.664Z,16.80
2022-07-31T15:02:23.663Z,16.25
2022-07-31T15:04:53.989Z,14.95
2022-07-31T15:07:40.935Z,14.70
2022-07-31T15:10:09.614Z,15.18
2022-07-31T15:12:36.591Z,14.98
2022-07-31T15:15:04.277Z,15.52
2022-07-31T15:17:31.021Z,15.10
2022-07-31T15:19:57.773Z,15.27
2022-07-31T15:22:24.506Z,15.52
2022-07-31T15:24:51.202Z,15.68
2022-07-31T15:27:19.301Z,15.32
2022-07-31T15:30:03.738Z,15.40
2022-07-31T15:32:33.990Z,15.50
2022-07-31T15:35:00.889Z,15.38
2022-07-31T15:37:27.829Z,15.63
2022-07-31T15:40:02.166Z,15.63
2022-07-31T15:42:34.740Z,14.80
2022-07-31T15:45:01.711Z,15.05
2022-07-31T15:47:28.617Z,14.80
2022-07-31T15:49:55.666Z,14.73
2022-07-31T15:52:22.613Z,14.43
2022-07-31T15:54:52.274Z,16.77
2022-07-31T15:57:23.819Z,17.17
2022-07-31T15:59:56.055Z,14.30
2022-07-31T16:02:24.321Z,14.48
2022-07-31T16:04:55.563Z,15.23
2022-07-31T16:08:32.668Z,14.75
2022-07-31T16:10:16.466Z,15.07
2022-07-31T16:12:48.624Z,14.95
2022-07-31T16:15:17.285Z,14.77
2022-07-31T16:17:45.306Z,14.60
2022-07-31T16:20:25.436Z,14.90
2022-07-31T16:22:56.640Z,15.13
2022-07-31T16:25:27.181Z,14.90
2022-07-31T16:27:55.422Z,14.52
2022-07-31T16:30:23.321Z,15.10
2022-07-31T16:32:50.332Z,15.50
2022-07-31T16:35:17.171Z,14.50
2022-07-31T16:37:50.195Z,14.20
2022-07-31T16:40:28.958Z,15.13
2022-07-31T16:43:01.124Z,18.65
2022-07-31T16:45:28.674Z,14.55
2022-07-31T16:47:55.453Z,12.70
2022-07-31T16:50:22.278Z,14.43
2022-07-31T16:52:52.619Z,16.75
2022-07-31T16:55:51.614Z,14.60
2022-07-31T16:58:11.760Z,14.93
2022-07-31T17:00:39.774Z,16.67
2022-07-31T17:03:06.804Z,20.73
2022-07-31T17:05:53.530Z,17.05
2022-07-31T17:08:20.347Z,36.20
2022-07-31T17:10:50.060Z,21.65
2022-07-31T17:13:19.641Z,16.75
2022-07-31T17:15:46.380Z,20.23
2022-07-31T17:18:13.039Z,28.58
2022-07-31T17:20:42.956Z,67.57
2022-07-31T17:25:37.196Z,33.38
2022-07-31T17:28:04.088Z,25.25
2022-07-31T17:30:30.890Z,21.00
2022-07-31T17:32:57.547Z,18.27
2022-07-31T17:35:24.275Z,16.98
2022-07-31T17:37:51.005Z,15.75
2022-07-31T17:40:42.017Z,15.23
2022-07-31T17:43:04.437Z,15.02
2022-07-31T17:45:50.646Z,22.30
2022-07-31T17:48:20.076Z,23.67
2022-07-31T17:50:48.542Z,63.20
2022-07-31T17:53:18.175Z,67.40
2022-07-31T17:55:44.787Z,29.27
2022-07-31T17:58:11.718Z,18.25
2022-07-31T18:00:39.557Z,15.10
2022-07-31T18:03:06.386Z,15.40
2022-07-31T18:05:33.103Z,14.93
2022-07-31T18:07:59.853Z,16.30
2022-07-31T18:10:51.803Z,15.80
2022-07-31T18:13:14.640Z,15.70
2022-07-31T18:15:43.227Z,15.52
2022-07-31T18:18:09.862Z,15.05
2022-07-31T18:20:36.652Z,14.38
2022-07-31T18:23:03.446Z,14.93
2022-07-31T18:25:32.440Z,14.23
2022-07-31T18:28:00.485Z,17.55
2022-07-31T18:30:30.459Z,16.88
2022-07-31T18:33:00.550Z,15.15
2022-07-31T18:35:27.316Z,14.35
2022-07-31T18:37:54.337Z,15.27
2022-07-31T18:40:21.273Z,14.30
2022-07-31T18:42:48.052Z,15.15
2022-07-31T18:45:14.745Z,15.38
2022-07-31T18:47:41.647Z,15.10
2022-07-31T18:51:01.286Z,13.48
2022-07-31T18:52:55.573Z,13.70
2022-07-31T18:55:22.989Z,13.68
2022-07-31T18:57:50.821Z,13.50
2022-07-31T19:00:17.687Z,13.55
2022-07-31T19:02:44.435Z,14.40
2022-07-31T19:05:13.585Z,14.10
2022-07-31T19:07:48.902Z,13.85
2022-07-31T19:10:29.310Z,13.70
2022-07-31T19:12:57.030Z,13.25
2022-07-31T19:15:23.833Z,13.20
2022-07-31T19:17:50.607Z,13.55
2022-07-31T19:20:46.496Z,14.18
2022-07-31T19:23:06.942Z,13.82
2022-07-31T19:26:02.014Z,13.82
2022-07-31T19:28:27.404Z,13.15
2022-07-31T19:30:54.729Z,14.10
2022-07-31T19:33:21.612Z,14.32
2022-07-31T19:35:55.110Z,14.38
2022-07-31T19:38:22.479Z,14.52
2022-07-31T19:40:49.320Z,14.15
2022-07-31T19:43:16.278Z,14.25
2022-07-31T19:46:00.511Z,14.05
2022-07-31T19:48:36.033Z,14.40
2022-07-31T19:51:02.981Z,14.82
2022-07-31T19:53:30.347Z,14.27
2022-07-31T19:55:57.598Z,14.50
2022-07-31T19:58:24.428Z,14.50
2022-07-31T20:00:51.054Z,15.07
2022-07-31T20:03:17.895Z,14.20
2022-07-31T20:05:44.735Z,13.90
2022-07-31T20:08:11.454Z,14.68
2022-07-31T20:10:38.662Z,14.10
2022-07-31T20:13:06.055Z,14.40
2022-07-31T20:15:51.952Z,13.80
2022-07-31T20:18:27.384Z,13.90
2022-07-31T20:21:08.320Z,13.65
2022-07-31T20:23:38.658Z,13.07
2022-07-31T20:26:07.439Z,14.02
2022-07-31T20:28:34.643Z,14.25
2022-07-31T20:31:01.706Z,13.98
2022-07-31T20:33:28.629Z,14.70
2022-07-31T20:35:55.371Z,15.10
2022-07-31T20:38:23.163Z,14.80
2022-07-31T20:40:55.592Z,14.75
2022-07-31T20:43:28.218Z,14.20
2022-07-31T20:45:59.335Z,13.57
2022-07-31T20:48:31.588Z,15.00
2022-07-31T20:50:59.370Z,15.15
2022-07-31T20:53:26.275Z,14.95
2022-07-31T20:55:53.075Z,14.52
2022-07-31T20:58:21.573Z,14.30
2022-07-31T21:00:50.140Z,14.73
2022-07-31T21:03:18.098Z,14.63
2022-07-31T21:05:45.713Z,14.55
2022-07-31T21:08:12.781Z,14.80
2022-07-31T21:10:39.773Z,15.00
2022-07-31T21:13:06.507Z,14.98
2022-07-31T21:15:42.785Z,14.80
2022-07-31T21:18:18.738Z,14.52
2022-07-31T21:20:53.461Z,15.15
2022-07-31T21:23:22.551Z,15.50
2022-07-31T21:25:49.843Z,14.95
2022-07-31T21:28:16.850Z,14.82
2022-07-31T21:30:43.840Z,14.90
2022-07-31T21:33:10.654Z,14.90
2022-07-31T21:35:39.975Z,15.35
2022-07-31T21:38:10.359Z,15.27
2022-07-31T21:40:39.377Z,15.13
2022-07-31T21:43:06.430Z,15.48
2022-07-31T21:45:50.981Z,14.88
2022-07-31T21:48:23.088Z,14.90
2022-07-31T21:50:50.984Z,15.18
2022-07-31T21:53:18.151Z,15.00
2022-07-31T21:55:44.870Z,15.40
2022-07-31T21:58:11.615Z,15.10
2022-07-31T22:00:38.529Z,14.55
2022-07-31T22:03:05.496Z,15.27
2022-07-31T22:05:52.033Z,15.07
2022-07-31T22:08:19.293Z,14.77
2022-07-31T22:10:46.693Z,15.38
2022-07-31T22:13:13.577Z,15.50
2022-07-31T22:15:58.572Z,15.80
2022-07-31T22:18:32.377Z,15.18
2022-07-31T22:21:00.976Z,15.20
2022-07-31T22:23:28.695Z,15.43
2022-07-31T22:25:56.110Z,15.60
2022-07-31T22:28:24.887Z,14.90
2022-07-31T22:30:52.890Z,16.10
2022-07-31T22:33:20.842Z,15.38
2022-07-31T22:35:58.636Z,14.70
2022-07-31T22:38:28.054Z,14.77
2022-07-31T22:40:55.126Z,14.82
2022-07-31T22:44:09.898Z,14.52
2022-07-31T22:46:13.171Z,14.93
2022-07-31T22:48:41.025Z,14.93
2022-07-31T22:51:08.738Z,15.10
2022-07-31T22:53:36.298Z,15.02
2022-07-31T22:56:03.610Z,14.20
2022-07-31T22:58:30.590Z,14.60
2022-07-31T23:00:57.390Z,14.30
2022-07-31T23:03:24.490Z,14.13
2022-07-31T23:06:12.248Z,14.32
2022-07-31T23:08:37.797Z,14.65
2022-07-31T23:11:04.654Z,14.50
2022-07-31T23:13:31.337Z,15.15
2022-07-31T23:15:58.023Z,15.18
2022-07-31T23:18:26.477Z,15.45
2022-07-31T23:20:53.370Z,14.88
2022-07-31T23:23:20.091Z,15.27
2022-07-31T23:25:46.773Z,15.20
2022-07-31T23:28:13.541Z,15.45
2022-07-31T23:30:40.338Z,15.20
2022-07-31T23:33:07.015Z,14.85
2022-07-31T23:35:33.709Z,15.48
2022-07-31T23:38:00.421Z,15.90
2022-07-31T23:40:27.112Z,15.60
2022-07-31T23:42:53.782Z,15.30
2022-07-31T23:45:20.473Z,15.80
2022-07-31T23:47:48.291Z,15.90
2022-07-31T23:50:16.833Z,15.40
2022-07-31T23:52:44.017Z,15.48
2022-07-31T23:55:11.410Z,15.15
2022-07-31T23:57:39.650Z,14.98
